ロンドン/ヒースロー の空港の天気 - METARとTAF

ロンドン・ヒースロー空港 ( EGLL / LHR ) - イギリス ロンドン
飛行場実況気象(Metar)
観測時間01/21 14:50 GMT (01/21 14:50 UTC)
風向・風速南西 5m/s
視程10km以上
天気現象
全天を覆う雲 雲底高度 820m
気温5℃
湿度70%
気圧1020hPa
METAREGLL 211450Z AUTO 23009KT 9999 OVC027 05/M00 Q1020
過去の天気等 Google飛行場航空写真 Wunderground天気予報

過去48時間のMETAR

飛行場予報(TAF)
発表時間: 1/21 11:00 GMT (1/21 11:00 UTC)
予報対象時間: 21日12時 GMT ~ 22日18時 GMT
風向・風速南南西 2m/s
視程4000m
天気現象煙霧
全天の4割程度の雲 雲底高度 910m
21日12時 GMT ~ 21日15時 GMT に徐々に
視程6000m
天気現象運行に影響にある天気現象が終了
21日12時 GMT ~ 21日23時 GMT に一時的に
視程10km以上
21日23時 GMT ~ 22日5時 GMT に一時的に
視程4000m
天気現象
全天の8割程度の雲 雲底高度 370m
22日1時 GMT ~ 22日5時 GMT に 確率 30% で一時的に
全天の8割程度の雲 雲底高度 240m
22日3時 GMT ~ 22日6時 GMT に徐々に
風向・風速西 5m/s
視程10km以上
22日13時 GMT ~ 22日18時 GMT に一時的に
視程6000m
天気現象弱いしゅう雨雪
全天の8割程度の雲 雲底高度 370m
22日13時 GMT ~ 22日18時 GMT に 確率 40% で一時的に
視程2000m
天気現象しゅう雨雪
全天の8割程度の雲 雲底高度 180m
TAF EGLL 211100Z 2112/2218 21004KT 4000 HZ SCT030
BECMG 2112/2115 6000 NSW
TEMPO 2112/2123 9999
TEMPO 2123/2205 4000 RA BKN012
PROB30 TEMPO 2201/2205 BKN008
BECMG 2203/2206 27010KT 9999
TEMPO 2213/2218 6000 -SHRASN BKN012
PROB40 TEMPO 2213/2218 2000 SHRASN BKN006